Time;durP1;ratioP1;P1;durP2;ratioP2;P2;SDS_P1;SDS_P2;PMS_P1;PMS_P2;Temp;Humidity;BMP_temperature;BMP_pressure;BME280_temperature;BME280_humidity;BME280_pressure;Samples;Min_cycle;Max_cycle;Signal;HPM_P1;HPM_P2
2022/09/13 00:00:30;;;;;;;5.9;3.9;;;;;;;11.14;81.35352;95089.29;;;;
2022/09/13 00:01:31;;;;;;;5.9;3.9;;;;;;;11.14;81.35352;95089.29;;;;
2022/09/13 00:02:31;;;;;;;5.9;3.9;;;;;;;11.14;81.35352;95089.29;;;;
2022/09/13 00:03:32;;;;;;;5.9;3.9;;;;;;;11.14;81.35352;95089.29;;;;
2022/09/13 00:04:33;;;;;;;5.9;3.9;;;;;;;11.14;81.35352;95089.29;;;;
2022/09/13 00:05:33;;;;;;;4.300001;3.7;;;;;;;11.07;81.4375;95065.97;;;;
2022/09/13 00:06:35;;;;;;;4.300001;3.7;;;;;;;11.07;81.4375;95065.97;;;;
2022/09/13 00:07:36;;;;;;;4.300001;3.7;;;;;;;11.07;81.4375;95065.97;;;;
2022/09/13 00:08:36;;;;;;;4.300001;3.7;;;;;;;11.07;81.4375;95065.97;;;;
2022/09/13 00:09:37;;;;;;;4.300001;3.7;;;;;;;11.07;81.4375;95065.97;;;;
2022/09/13 00:10:38;;;;;;;4.300001;3.7;;;;;;;11.07;81.4375;95065.97;;;;
2022/09/13 00:11:40;;;;;;;4.300001;3.7;;;;;;;11.07;81.4375;95065.97;;;;
2022/09/13 00:12:41;;;;;;;4.300001;3.7;;;;;;;11.07;81.4375;95065.97;;;;
2022/09/13 00:13:42;;;;;;;4.300001;3.7;;;;;;;11.07;81.4375;95065.97;;;;
2022/09/13 00:14:43;;;;;;;4.300001;3.7;;;;;;;11.07;81.4375;95065.97;;;;
2022/09/13 00:15:43;;;;;;;4.05;3.45;;;;;;;11.06;81.62988;95069.65;;;;
2022/09/13 00:16:46;;;;;;;4.05;3.45;;;;;;;11.06;81.62988;95069.65;;;;
2022/09/13 00:17:46;;;;;;;4.05;3.45;;;;;;;11.06;81.62988;95069.65;;;;
2022/09/13 00:18:47;;;;;;;4.05;3.45;;;;;;;11.06;81.62988;95069.65;;;;
2022/09/13 00:19:47;;;;;;;4.05;3.45;;;;;;;11.06;81.62988;95069.65;;;;
2022/09/13 00:20:48;;;;;;;4.05;3.45;;;;;;;11.06;81.62988;95069.65;;;;
2022/09/13 00:21:48;;;;;;;4.05;3.45;;;;;;;11.06;81.62988;95069.65;;;;
2022/09/13 00:22:49;;;;;;;4.05;3.45;;;;;;;11.06;81.62988;95069.65;;;;
2022/09/13 00:23:49;;;;;;;4.05;3.45;;;;;;;11.06;81.62988;95069.65;;;;
2022/09/13 00:24:51;;;;;;;4.05;3.45;;;;;;;11.06;81.62988;95069.65;;;;
2022/09/13 00:25:52;;;;;;;4.05;3.45;;;;;;;11.06;81.62988;95069.65;;;;
2022/09/13 00:27:01;;;;;;;4.9;4.1;;;;;;;11;81.84277;95048.16;;;;
2022/09/13 00:28:02;;;;;;;4.9;4.1;;;;;;;11;81.84277;95048.16;;;;
2022/09/13 00:29:03;;;;;;;4.9;4.1;;;;;;;11;81.84277;95048.16;;;;
2022/09/13 00:30:04;;;;;;;4.9;4.1;;;;;;;11;81.84277;95048.16;;;;
2022/09/13 00:31:06;;;;;;;4.9;4.1;;;;;;;11;81.84277;95048.16;;;;
2022/09/13 00:32:08;;;;;;;4.9;4.1;;;;;;;11;81.84277;95048.16;;;;
2022/09/13 00:33:09;;;;;;;4.9;4.1;;;;;;;11;81.84277;95048.16;;;;
2022/09/13 00:34:10;;;;;;;4.9;4.1;;;;;;;11;81.84277;95048.16;;;;
2022/09/13 00:35:10;;;;;;;4.9;4.1;;;;;;;11;81.84277;95048.16;;;;
2022/09/13 00:36:11;;;;;;;4.9;4.1;;;;;;;11;81.84277;95048.16;;;;
2022/09/13 00:37:12;;;;;;;5.1;3.6;;;;;;;11.06;82.04688;95039.33;;;;
2022/09/13 00:38:13;;;;;;;5.1;3.6;;;;;;;11.06;82.04688;95039.33;;;;
2022/09/13 00:39:13;;;;;;;5.1;3.6;;;;;;;11.06;82.04688;95039.33;;;;
2022/09/13 00:40:14;;;;;;;5.1;3.6;;;;;;;11.06;82.04688;95039.33;;;;
2022/09/13 00:41:14;;;;;;;5.1;3.6;;;;;;;11.06;82.04688;95039.33;;;;
2022/09/13 00:42:18;;;;;;;5.1;3.6;;;;;;;11.06;82.04688;95039.33;;;;
2022/09/13 00:43:24;;;;;;;5.1;3.6;;;;;;;11.06;82.04688;95039.33;;;;
2022/09/13 00:44:41;;;;;;;5.1;3.6;;;;;;;11.06;82.04688;95039.33;;;;
2022/09/13 00:45:52;;;;;;;5.1;3.6;;;;;;;11.06;82.04688;95039.33;;;;
2022/09/13 00:46:52;;;;;;;5.1;3.6;;;;;;;11.06;82.04688;95039.33;;;;
2022/09/13 00:47:53;;;;;;;4.1;3.45;;;;;;;11.09;82.32227;95034.41;;;;
2022/09/13 00:48:58;;;;;;;4.1;3.45;;;;;;;11.09;82.32227;95034.41;;;;
2022/09/13 00:50:05;;;;;;;4.1;3.45;;;;;;;11.09;82.32227;95034.41;;;;
2022/09/13 00:51:17;;;;;;;4.1;3.45;;;;;;;11.09;82.32227;95034.41;;;;
2022/09/13 00:52:18;;;;;;;4.1;3.45;;;;;;;11.09;82.32227;95034.41;;;;
2022/09/13 00:53:21;;;;;;;4.1;3.45;;;;;;;11.09;82.32227;95034.41;;;;
2022/09/13 00:54:27;;;;;;;4.1;3.45;;;;;;;11.09;82.32227;95034.41;;;;
2022/09/13 00:55:35;;;;;;;4.1;3.45;;;;;;;11.09;82.32227;95034.41;;;;
2022/09/13 00:56:42;;;;;;;4.1;3.45;;;;;;;11.09;82.32227;95034.41;;;;
2022/09/13 00:57:47;;;;;;;4.1;3.45;;;;;;;11.09;82.32227;95034.41;;;;
2022/09/13 00:58:49;;;;;;;4.100001;3.45;;;;;;;11.14;82.62109;95041.17;;;;
2022/09/13 00:59:54;;;;;;;4.100001;3.45;;;;;;;11.14;82.62109;95041.17;;;;
2022/09/13 01:01:01;;;;;;;4.100001;3.45;;;;;;;11.14;82.62109;95041.17;;;;
2022/09/13 01:02:04;;;;;;;4.100001;3.45;;;;;;;11.14;82.62109;95041.17;;;;
2022/09/13 01:03:05;;;;;;;4.100001;3.45;;;;;;;11.14;82.62109;95041.17;;;;
2022/09/13 01:04:11;;;;;;;4.100001;3.45;;;;;;;11.14;82.62109;95041.17;;;;
2022/09/13 01:05:11;;;;;;;4.100001;3.45;;;;;;;11.14;82.62109;95041.17;;;;
2022/09/13 01:06:14;;;;;;;4.100001;3.45;;;;;;;11.14;82.62109;95041.17;;;;
2022/09/13 01:07:17;;;;;;;4.100001;3.45;;;;;;;11.14;82.62109;95041.17;;;;
2022/09/13 01:08:21;;;;;;;4.100001;3.45;;;;;;;11.14;82.62109;95041.17;;;;
2022/09/13 01:09:22;;;;;;;3.7;3.35;;;;;;;11.25;82.6748;95019.26;;;;
2022/09/13 01:10:23;;;;;;;3.7;3.35;;;;;;;11.25;82.6748;95019.26;;;;
2022/09/13 01:11:24;;;;;;;3.7;3.35;;;;;;;11.25;82.6748;95019.26;;;;
2022/09/13 01:12:30;;;;;;;3.7;3.35;;;;;;;11.25;82.6748;95019.26;;;;
2022/09/13 01:13:36;;;;;;;3.7;3.35;;;;;;;11.25;82.6748;95019.26;;;;
2022/09/13 01:14:38;;;;;;;3.7;3.35;;;;;;;11.25;82.6748;95019.26;;;;
2022/09/13 01:15:39;;;;;;;3.7;3.35;;;;;;;11.25;82.6748;95019.26;;;;
2022/09/13 01:16:40;;;;;;;3.7;3.35;;;;;;;11.25;82.6748;95019.26;;;;
2022/09/13 01:17:41;;;;;;;3.7;3.35;;;;;;;11.25;82.6748;95019.26;;;;
2022/09/13 01:18:42;;;;;;;3.7;3.35;;;;;;;11.25;82.6748;95019.26;;;;
2022/09/13 01:19:43;;;;;;;5.5;3.55;;;;;;;11.23;82.64844;95005.57;;;;
2022/09/13 01:20:43;;;;;;;5.5;3.55;;;;;;;11.23;82.64844;95005.57;;;;
2022/09/13 01:22:00;;;;;;;5.5;3.55;;;;;;;11.23;82.64844;95005.57;;;;
2022/09/13 01:27:13;;;;;;;5.5;3.55;;;;;;;11.23;82.64844;95005.57;;;;
2022/09/13 01:28:29;;;;;;;5.5;3.55;;;;;;;11.23;82.64844;95005.57;;;;
2022/09/13 01:29:48;;;;;;;5.5;3.55;;;;;;;11.23;82.64844;95005.57;;;;
2022/09/13 01:31:16;;;;;;;6.05;3.45;;;;;;;11.21;82.79492;95001.42;;;;
2022/09/13 01:32:24;;;;;;;6.05;3.45;;;;;;;11.21;82.79492;95001.42;;;;
2022/09/13 01:33:34;;;;;;;6.05;3.45;;;;;;;11.21;82.79492;95001.42;;;;
2022/09/13 01:34:47;;;;;;;6.05;3.45;;;;;;;11.21;82.79492;95001.42;;;;
2022/09/13 01:35:58;;;;;;;6.05;3.45;;;;;;;11.21;82.79492;95001.42;;;;
2022/09/13 01:37:16;;;;;;;6.05;3.45;;;;;;;11.21;82.79492;95001.42;;;;
2022/09/13 01:38:32;;;;;;;6.05;3.45;;;;;;;11.21;82.79492;95001.42;;;;
2022/09/13 01:39:43;;;;;;;6.05;3.45;;;;;;;11.21;82.79492;95001.42;;;;
2022/09/13 01:41:03;;;;;;;3.5;3.2;;;;;;;11.1;82.96777;94990.67;;;;
2022/09/13 01:42:16;;;;;;;3.5;3.2;;;;;;;11.1;82.96777;94990.67;;;;
2022/09/13 01:43:26;;;;;;;3.5;3.2;;;;;;;11.1;82.96777;94990.67;;;;
2022/09/13 01:44:41;;;;;;;3.5;3.2;;;;;;;11.1;82.96777;94990.67;;;;
2022/09/13 01:45:58;;;;;;;3.5;3.2;;;;;;;11.1;82.96777;94990.67;;;;
2022/09/13 01:47:04;;;;;;;3.5;3.2;;;;;;;11.1;82.96777;94990.67;;;;
2022/09/13 01:48:19;;;;;;;3.5;3.2;;;;;;;11.1;82.96777;94990.67;;;;
2022/09/13 01:49:24;;;;;;;3.5;3.2;;;;;;;11.1;82.96777;94990.67;;;;
2022/09/13 01:50:34;;;;;;;3.5;3.2;;;;;;;11.1;82.96777;94990.67;;;;
2022/09/13 01:51:42;;;;;;;3.55;3.25;;;;;;;11.15;83.18164;94991.74;;;;
2022/09/13 01:52:49;;;;;;;3.55;3.25;;;;;;;11.15;83.18164;94991.74;;;;
2022/09/13 01:53:55;;;;;;;3.55;3.25;;;;;;;11.15;83.18164;94991.74;;;;
2022/09/13 01:55:11;;;;;;;3.55;3.25;;;;;;;11.15;83.18164;94991.74;;;;
2022/09/13 01:56:22;;;;;;;3.55;3.25;;;;;;;11.15;83.18164;94991.74;;;;
2022/09/13 01:57:27;;;;;;;3.55;3.25;;;;;;;11.15;83.18164;94991.74;;;;
2022/09/13 01:58:32;;;;;;;3.55;3.25;;;;;;;11.15;83.18164;94991.74;;;;
2022/09/13 01:59:41;;;;;;;3.55;3.25;;;;;;;11.15;83.18164;94991.74;;;;
2022/09/13 02:00:50;;;;;;;3.55;3.25;;;;;;;11.15;83.18164;94991.74;;;;
2022/09/13 02:01:55;;;;;;;3.55;3.25;;;;;;;11.15;83.18164;94991.74;;;;
2022/09/13 02:03:03;;;;;;;4.6;3.2;;;;;;;11.06;83.25195;94986.33;;;;
2022/09/13 02:04:08;;;;;;;4.6;3.2;;;;;;;11.06;83.25195;94986.33;;;;
2022/09/13 02:05:12;;;;;;;4.6;3.2;;;;;;;11.06;83.25195;94986.33;;;;
2022/09/13 02:06:17;;;;;;;4.6;3.2;;;;;;;11.06;83.25195;94986.33;;;;
2022/09/13 02:07:23;;;;;;;4.6;3.2;;;;;;;11.06;83.25195;94986.33;;;;
2022/09/13 02:08:31;;;;;;;4.6;3.2;;;;;;;11.06;83.25195;94986.33;;;;
2022/09/13 02:09:38;;;;;;;4.6;3.2;;;;;;;11.06;83.25195;94986.33;;;;
2022/09/13 02:10:42;;;;;;;4.6;3.2;;;;;;;11.06;83.25195;94986.33;;;;
2022/09/13 02:11:48;;;;;;;4.6;3.2;;;;;;;11.06;83.25195;94986.33;;;;
2022/09/13 02:12:59;;;;;;;3.55;3.25;;;;;;;11.07;83.45801;94981.33;;;;
2022/09/13 02:14:04;;;;;;;3.55;3.25;;;;;;;11.07;83.45801;94981.33;;;;
2022/09/13 02:15:10;;;;;;;3.55;3.25;;;;;;;11.07;83.45801;94981.33;;;;
2022/09/13 02:16:15;;;;;;;3.55;3.25;;;;;;;11.07;83.45801;94981.33;;;;
2022/09/13 02:17:22;;;;;;;3.55;3.25;;;;;;;11.07;83.45801;94981.33;;;;
2022/09/13 02:18:27;;;;;;;3.55;3.25;;;;;;;11.07;83.45801;94981.33;;;;
2022/09/13 02:19:32;;;;;;;3.55;3.25;;;;;;;11.07;83.45801;94981.33;;;;
2022/09/13 02:20:37;;;;;;;3.55;3.25;;;;;;;11.07;83.45801;94981.33;;;;
2022/09/13 02:21:43;;;;;;;3.55;3.25;;;;;;;11.07;83.45801;94981.33;;;;
2022/09/13 02:22:48;;;;;;;3.55;3.25;;;;;;;11.07;83.45801;94981.33;;;;
2022/09/13 02:23:55;;;;;;;3.35;2.9;;;;;;;11.05;83.53906;94998.05;;;;
2022/09/13 02:25:00;;;;;;;3.35;2.9;;;;;;;11.05;83.53906;94998.05;;;;
2022/09/13 02:26:05;;;;;;;3.35;2.9;;;;;;;11.05;83.53906;94998.05;;;;
2022/09/13 02:27:10;;;;;;;3.35;2.9;;;;;;;11.05;83.53906;94998.05;;;;
2022/09/13 02:28:15;;;;;;;3.35;2.9;;;;;;;11.05;83.53906;94998.05;;;;
2022/09/13 02:29:27;;;;;;;3.35;2.9;;;;;;;11.05;83.53906;94998.05;;;;
2022/09/13 02:30:30;;;;;;;3.35;2.9;;;;;;;11.05;83.53906;94998.05;;;;
2022/09/13 02:31:35;;;;;;;3.35;2.9;;;;;;;11.05;83.53906;94998.05;;;;
2022/09/13 02:32:41;;;;;;;3.35;2.9;;;;;;;11.05;83.53906;94998.05;;;;
2022/09/13 02:33:47;;;;;;;3.35;2.9;;;;;;;11.05;83.53906;94998.05;;;;
2022/09/13 02:34:53;;;;;;;2.9;2.7;;;;;;;11.08;83.66406;94997.1;;;;
2022/09/13 02:35:59;;;;;;;2.9;2.7;;;;;;;11.08;83.66406;94997.1;;;;
2022/09/13 02:37:02;;;;;;;2.9;2.7;;;;;;;11.08;83.66406;94997.1;;;;
2022/09/13 02:38:06;;;;;;;2.9;2.7;;;;;;;11.08;83.66406;94997.1;;;;
2022/09/13 02:39:11;;;;;;;2.9;2.7;;;;;;;11.08;83.66406;94997.1;;;;
2022/09/13 02:40:16;;;;;;;2.9;2.7;;;;;;;11.08;83.66406;94997.1;;;;
2022/09/13 02:41:22;;;;;;;2.9;2.7;;;;;;;11.08;83.66406;94997.1;;;;
2022/09/13 02:42:28;;;;;;;2.9;2.7;;;;;;;11.08;83.66406;94997.1;;;;
2022/09/13 02:43:34;;;;;;;2.9;2.7;;;;;;;11.08;83.66406;94997.1;;;;
2022/09/13 02:44:40;;;;;;;2.9;2.7;;;;;;;11.08;83.66406;94997.1;;;;
2022/09/13 02:45:44;;;;;;;3.15;2.85;;;;;;;11.02;83.70508;94998.91;;;;
2022/09/13 02:46:52;;;;;;;3.15;2.85;;;;;;;11.02;83.70508;94998.91;;;;
2022/09/13 02:48:09;;;;;;;3.15;2.85;;;;;;;11.02;83.70508;94998.91;;;;
2022/09/13 02:49:20;;;;;;;3.15;2.85;;;;;;;11.02;83.70508;94998.91;;;;
2022/09/13 02:50:29;;;;;;;3.15;2.85;;;;;;;11.02;83.70508;94998.91;;;;
2022/09/13 02:51:44;;;;;;;3.15;2.85;;;;;;;11.02;83.70508;94998.91;;;;
2022/09/13 02:52:54;;;;;;;3.15;2.85;;;;;;;11.02;83.70508;94998.91;;;;
2022/09/13 02:54:04;;;;;;;3.15;2.85;;;;;;;11.02;83.70508;94998.91;;;;
2022/09/13 02:55:15;;;;;;;3.15;2.85;;;;;;;11.02;83.70508;94998.91;;;;
2022/09/13 02:56:20;;;;;;;3.2;2.900001;;;;;;;11.02;83.85742;95001.97;;;;
2022/09/13 02:57:30;;;;;;;3.2;2.900001;;;;;;;11.02;83.85742;95001.97;;;;
2022/09/13 02:58:37;;;;;;;3.2;2.900001;;;;;;;11.02;83.85742;95001.97;;;;
2022/09/13 02:59:45;;;;;;;3.2;2.900001;;;;;;;11.02;83.85742;95001.97;;;;
2022/09/13 03:00:47;;;;;;;3.2;2.900001;;;;;;;11.02;83.85742;95001.97;;;;
2022/09/13 03:01:48;;;;;;;3.2;2.900001;;;;;;;11.02;83.85742;95001.97;;;;
2022/09/13 03:02:53;;;;;;;3.2;2.900001;;;;;;;11.02;83.85742;95001.97;;;;
2022/09/13 03:03:57;;;;;;;3.2;2.900001;;;;;;;11.02;83.85742;95001.97;;;;
2022/09/13 03:04:58;;;;;;;3.2;2.900001;;;;;;;11.02;83.85742;95001.97;;;;
2022/09/13 03:05:59;;;;;;;3.2;2.900001;;;;;;;11.02;83.85742;95001.97;;;;
2022/09/13 03:06:59;;;;;;;3.2;2.900001;;;;;;;11.02;83.85742;95001.97;;;;
2022/09/13 03:08:00;;;;;;;3.2;2.900001;;;;;;;11.02;83.85742;95001.97;;;;
2022/09/13 03:09:02;;;;;;;3.2;2.900001;;;;;;;11.02;83.85742;95001.97;;;;
2022/09/13 03:10:05;;;;;;;3.2;2.900001;;;;;;;11.02;83.85742;95001.97;;;;
2022/09/13 03:11:08;;;;;;;3.2;2.900001;;;;;;;11.02;83.85742;95001.97;;;;
2022/09/13 03:12:19;;;;;;;3.2;2.900001;;;;;;;11.02;83.85742;95001.97;;;;
2022/09/13 03:13:33;;;;;;;3.2;2.900001;;;;;;;11.02;83.85742;95001.97;;;;
2022/09/13 03:14:48;;;;;;;3.2;2.900001;;;;;;;11.02;83.85742;95001.97;;;;
2022/09/13 03:15:58;;;;;;;3.2;2.900001;;;;;;;11.02;83.85742;95001.97;;;;
2022/09/13 03:17:09;;;;;;;3.4;2.35;;;;;;;11.05;84.03223;95001.11;;;;
2022/09/13 03:18:18;;;;;;;3.4;2.35;;;;;;;11.05;84.03223;95001.11;;;;
2022/09/13 03:19:36;;;;;;;3.4;2.35;;;;;;;11.05;84.03223;95001.11;;;;
2022/09/13 03:20:50;;;;;;;3.4;2.35;;;;;;;11.05;84.03223;95001.11;;;;
2022/09/13 03:22:01;;;;;;;3.4;2.35;;;;;;;11.05;84.03223;95001.11;;;;
2022/09/13 03:23:18;;;;;;;3.4;2.35;;;;;;;11.05;84.03223;95001.11;;;;
2022/09/13 03:24:34;;;;;;;3.4;2.35;;;;;;;11.05;84.03223;95001.11;;;;
2022/09/13 03:25:49;;;;;;;3.4;2.35;;;;;;;11.05;84.03223;95001.11;;;;
2022/09/13 03:27:19;;;;;;;3.4;2.35;;;;;;;11.05;84.03223;95001.11;;;;
2022/09/13 03:28:27;;;;;;;5;2.55;;;;;;;10.96;84.05957;95000.59;;;;
2022/09/13 03:29:38;;;;;;;5;2.55;;;;;;;10.96;84.05957;95000.59;;;;
2022/09/13 03:30:45;;;;;;;5;2.55;;;;;;;10.96;84.05957;95000.59;;;;
2022/09/13 03:31:51;;;;;;;5;2.55;;;;;;;10.96;84.05957;95000.59;;;;
2022/09/13 03:33:04;;;;;;;5;2.55;;;;;;;10.96;84.05957;95000.59;;;;
2022/09/13 03:34:16;;;;;;;5;2.55;;;;;;;10.96;84.05957;95000.59;;;;
2022/09/13 03:35:28;;;;;;;5;2.55;;;;;;;10.96;84.05957;95000.59;;;;
2022/09/13 03:36:38;;;;;;;5;2.55;;;;;;;10.96;84.05957;95000.59;;;;
2022/09/13 03:37:45;;;;;;;5;2.55;;;;;;;10.96;84.05957;95000.59;;;;
2022/09/13 03:38:56;;;;;;;2.65;2.45;;;;;;;10.9;84.16504;94977.78;;;;
2022/09/13 03:40:06;;;;;;;2.65;2.45;;;;;;;10.9;84.16504;94977.78;;;;
2022/09/13 03:41:11;;;;;;;2.65;2.45;;;;;;;10.9;84.16504;94977.78;;;;
2022/09/13 03:42:18;;;;;;;2.65;2.45;;;;;;;10.9;84.16504;94977.78;;;;
2022/09/13 03:43:23;;;;;;;2.65;2.45;;;;;;;10.9;84.16504;94977.78;;;;
2022/09/13 03:44:28;;;;;;;2.65;2.45;;;;;;;10.9;84.16504;94977.78;;;;
2022/09/13 03:45:31;;;;;;;2.65;2.45;;;;;;;10.9;84.16504;94977.78;;;;
2022/09/13 03:46:37;;;;;;;2.65;2.45;;;;;;;10.9;84.16504;94977.78;;;;
2022/09/13 03:47:41;;;;;;;2.65;2.45;;;;;;;10.9;84.16504;94977.78;;;;
2022/09/13 03:48:44;;;;;;;3.8;2.4;;;;;;;10.81;84.32031;94988.78;;;;
2022/09/13 03:49:46;;;;;;;3.8;2.4;;;;;;;10.81;84.32031;94988.78;;;;
2022/09/13 03:50:47;;;;;;;3.8;2.4;;;;;;;10.81;84.32031;94988.78;;;;
2022/09/13 03:51:49;;;;;;;3.8;2.4;;;;;;;10.81;84.32031;94988.78;;;;
2022/09/13 03:52:51;;;;;;;3.8;2.4;;;;;;;10.81;84.32031;94988.78;;;;
2022/09/13 03:53:57;;;;;;;3.8;2.4;;;;;;;10.81;84.32031;94988.78;;;;
2022/09/13 03:55:02;;;;;;;3.8;2.4;;;;;;;10.81;84.32031;94988.78;;;;
2022/09/13 03:56:03;;;;;;;3.8;2.4;;;;;;;10.81;84.32031;94988.78;;;;
2022/09/13 03:57:12;;;;;;;3.8;2.4;;;;;;;10.81;84.32031;94988.78;;;;
2022/09/13 03:58:14;;;;;;;3.8;2.4;;;;;;;10.81;84.32031;94988.78;;;;
2022/09/13 03:59:19;;;;;;;3.8;2.4;;;;;;;10.81;84.32031;94988.78;;;;
2022/09/13 04:00:20;;;;;;;3;2.55;;;;;;;10.85;84.52051;95009.77;;;;
2022/09/13 04:01:21;;;;;;;3;2.55;;;;;;;10.85;84.52051;95009.77;;;;
2022/09/13 04:02:23;;;;;;;3;2.55;;;;;;;10.85;84.52051;95009.77;;;;
2022/09/13 04:03:25;;;;;;;3;2.55;;;;;;;10.85;84.52051;95009.77;;;;
2022/09/13 04:04:25;;;;;;;3;2.55;;;;;;;10.85;84.52051;95009.77;;;;
2022/09/13 04:05:26;;;;;;;3;2.55;;;;;;;10.85;84.52051;95009.77;;;;
2022/09/13 04:06:26;;;;;;;3;2.55;;;;;;;10.85;84.52051;95009.77;;;;
2022/09/13 04:07:27;;;;;;;3;2.55;;;;;;;10.85;84.52051;95009.77;;;;
2022/09/13 04:08:27;;;;;;;3;2.55;;;;;;;10.85;84.52051;95009.77;;;;
2022/09/13 04:09:28;;;;;;;3;2.55;;;;;;;10.85;84.52051;95009.77;;;;
2022/09/13 04:10:30;;;;;;;3.7;2.35;;;;;;;10.8;84.59766;95009.11;;;;
2022/09/13 04:11:31;;;;;;;3.7;2.35;;;;;;;10.8;84.59766;95009.11;;;;
2022/09/13 04:12:32;;;;;;;3.7;2.35;;;;;;;10.8;84.59766;95009.11;;;;
2022/09/13 04:13:32;;;;;;;3.7;2.35;;;;;;;10.8;84.59766;95009.11;;;;
2022/09/13 04:14:33;;;;;;;3.7;2.35;;;;;;;10.8;84.59766;95009.11;;;;
2022/09/13 04:15:33;;;;;;;3.7;2.35;;;;;;;10.8;84.59766;95009.11;;;;
2022/09/13 04:16:34;;;;;;;3.7;2.35;;;;;;;10.8;84.59766;95009.11;;;;
2022/09/13 04:17:35;;;;;;;3.7;2.35;;;;;;;10.8;84.59766;95009.11;;;;
2022/09/13 04:18:35;;;;;;;3.7;2.35;;;;;;;10.8;84.59766;95009.11;;;;
2022/09/13 04:19:36;;;;;;;3.7;2.35;;;;;;;10.8;84.59766;95009.11;;;;
2022/09/13 04:20:36;;;;;;;3.7;2.35;;;;;;;10.8;84.59766;95009.11;;;;
2022/09/13 04:21:37;;;;;;;3.400001;3;;;;;;;10.78;84.75293;95001.12;;;;
2022/09/13 04:22:37;;;;;;;3.400001;3;;;;;;;10.78;84.75293;95001.12;;;;
2022/09/13 04:23:38;;;;;;;3.400001;3;;;;;;;10.78;84.75293;95001.12;;;;
2022/09/13 04:24:39;;;;;;;3.400001;3;;;;;;;10.78;84.75293;95001.12;;;;
2022/09/13 04:25:39;;;;;;;3.400001;3;;;;;;;10.78;84.75293;95001.12;;;;
2022/09/13 04:26:39;;;;;;;3.400001;3;;;;;;;10.78;84.75293;95001.12;;;;
2022/09/13 04:27:40;;;;;;;3.400001;3;;;;;;;10.78;84.75293;95001.12;;;;
2022/09/13 04:28:40;;;;;;;3.400001;3;;;;;;;10.78;84.75293;95001.12;;;;
2022/09/13 04:29:41;;;;;;;3.400001;3;;;;;;;10.78;84.75293;95001.12;;;;
2022/09/13 04:30:41;;;;;;;3.400001;3;;;;;;;10.78;84.75293;95001.12;;;;
2022/09/13 04:31:43;;;;;;;3.400001;3;;;;;;;10.78;84.75293;95001.12;;;;
2022/09/13 04:32:43;;;;;;;3.400001;3;;;;;;;10.78;84.75293;95001.12;;;;
2022/09/13 04:33:44;;;;;;;3.400001;3;;;;;;;10.78;84.75293;95001.12;;;;
2022/09/13 04:34:46;;;;;;;3.400001;3;;;;;;;10.78;84.75293;95001.12;;;;
2022/09/13 04:35:47;;;;;;;3.400001;3;;;;;;;10.78;84.75293;95001.12;;;;
2022/09/13 04:36:47;;;;;;;3.400001;3;;;;;;;10.78;84.75293;95001.12;;;;
2022/09/13 04:37:49;;;;;;;3.400001;3;;;;;;;10.78;84.75293;95001.12;;;;
2022/09/13 04:38:49;;;;;;;3.400001;3;;;;;;;10.78;84.75293;95001.12;;;;
2022/09/13 04:39:50;;;;;;;3.400001;3;;;;;;;10.78;84.75293;95001.12;;;;
2022/09/13 04:40:50;;;;;;;3.400001;3;;;;;;;10.78;84.75293;95001.12;;;;
2022/09/13 04:41:54;;;;;;;3.400001;3;;;;;;;10.78;84.75293;95001.12;;;;
2022/09/13 04:42:54;;;;;;;2.8;2.35;;;;;;;10.88;84.87109;95000.48;;;;
2022/09/13 04:43:54;;;;;;;2.8;2.35;;;;;;;10.88;84.87109;95000.48;;;;
2022/09/13 04:44:55;;;;;;;2.8;2.35;;;;;;;10.88;84.87109;95000.48;;;;
2022/09/13 04:45:55;;;;;;;2.8;2.35;;;;;;;10.88;84.87109;95000.48;;;;
2022/09/13 04:46:59;;;;;;;2.8;2.35;;;;;;;10.88;84.87109;95000.48;;;;
2022/09/13 04:47:59;;;;;;;2.8;2.35;;;;;;;10.88;84.87109;95000.48;;;;
2022/09/13 04:49:00;;;;;;;2.8;2.35;;;;;;;10.88;84.87109;95000.48;;;;
2022/09/13 04:50:01;;;;;;;2.8;2.35;;;;;;;10.88;84.87109;95000.48;;;;
2022/09/13 04:51:03;;;;;;;2.8;2.35;;;;;;;10.88;84.87109;95000.48;;;;
2022/09/13 04:52:04;;;;;;;2.8;2.35;;;;;;;10.88;84.87109;95000.48;;;;
2022/09/13 04:53:04;;;;;;;2.8;2.45;;;;;;;10.9;84.96973;95004.63;;;;
2022/09/13 04:54:05;;;;;;;2.8;2.45;;;;;;;10.9;84.96973;95004.63;;;;
2022/09/13 04:55:06;;;;;;;2.8;2.45;;;;;;;10.9;84.96973;95004.63;;;;
2022/09/13 04:56:09;;;;;;;2.8;2.45;;;;;;;10.9;84.96973;95004.63;;;;
2022/09/13 04:57:11;;;;;;;2.8;2.45;;;;;;;10.9;84.96973;95004.63;;;;
2022/09/13 04:58:11;;;;;;;2.8;2.45;;;;;;;10.9;84.96973;95004.63;;;;
2022/09/13 04:59:12;;;;;;;2.8;2.45;;;;;;;10.9;84.96973;95004.63;;;;
2022/09/13 05:00:13;;;;;;;2.8;2.45;;;;;;;10.9;84.96973;95004.63;;;;
2022/09/13 05:01:14;;;;;;;2.8;2.45;;;;;;;10.9;84.96973;95004.63;;;;
2022/09/13 05:02:15;;;;;;;2.8;2.45;;;;;;;10.9;84.96973;95004.63;;;;
2022/09/13 05:03:15;;;;;;;2.8;2.45;;;;;;;10.9;84.96973;95004.63;;;;
2022/09/13 05:04:16;;;;;;;2.9;2.5;;;;;;;10.98;84.9541;95013.18;;;;
2022/09/13 05:05:16;;;;;;;2.9;2.5;;;;;;;10.98;84.9541;95013.18;;;;
2022/09/13 05:06:17;;;;;;;2.9;2.5;;;;;;;10.98;84.9541;95013.18;;;;
2022/09/13 05:07:18;;;;;;;2.9;2.5;;;;;;;10.98;84.9541;95013.18;;;;
2022/09/13 05:08:19;;;;;;;2.9;2.5;;;;;;;10.98;84.9541;95013.18;;;;
2022/09/13 05:09:19;;;;;;;2.9;2.5;;;;;;;10.98;84.9541;95013.18;;;;
2022/09/13 05:10:20;;;;;;;2.9;2.5;;;;;;;10.98;84.9541;95013.18;;;;
2022/09/13 05:11:21;;;;;;;2.9;2.5;;;;;;;10.98;84.9541;95013.18;;;;
2022/09/13 05:12:23;;;;;;;2.9;2.5;;;;;;;10.98;84.9541;95013.18;;;;
2022/09/13 05:13:24;;;;;;;2.9;2.5;;;;;;;10.98;84.9541;95013.18;;;;
2022/09/13 05:14:24;;;;;;;2.5;2.3;;;;;;;11.04;84.93262;95021.58;;;;
2022/09/13 05:15:25;;;;;;;2.5;2.3;;;;;;;11.04;84.93262;95021.58;;;;
2022/09/13 05:16:25;;;;;;;2.5;2.3;;;;;;;11.04;84.93262;95021.58;;;;
2022/09/13 05:17:28;;;;;;;2.5;2.3;;;;;;;11.04;84.93262;95021.58;;;;
2022/09/13 05:18:29;;;;;;;2.5;2.3;;;;;;;11.04;84.93262;95021.58;;;;
2022/09/13 05:19:32;;;;;;;2.5;2.3;;;;;;;11.04;84.93262;95021.58;;;;
2022/09/13 05:20:32;;;;;;;2.5;2.3;;;;;;;11.04;84.93262;95021.58;;;;
2022/09/13 05:21:33;;;;;;;2.5;2.3;;;;;;;11.04;84.93262;95021.58;;;;
2022/09/13 05:22:33;;;;;;;2.5;2.3;;;;;;;11.04;84.93262;95021.58;;;;
2022/09/13 05:23:34;;;;;;;2.5;2.3;;;;;;;11.04;84.93262;95021.58;;;;
2022/09/13 05:24:34;;;;;;;2.5;2.3;;;;;;;11.04;84.93262;95021.58;;;;
2022/09/13 05:25:35;;;;;;;2.45;2.25;;;;;;;11.22;85.06543;95009.12;;;;
2022/09/13 05:26:35;;;;;;;2.45;2.25;;;;;;;11.22;85.06543;95009.12;;;;
2022/09/13 05:27:36;;;;;;;2.45;2.25;;;;;;;11.22;85.06543;95009.12;;;;
2022/09/13 05:28:37;;;;;;;2.45;2.25;;;;;;;11.22;85.06543;95009.12;;;;
2022/09/13 05:29:37;;;;;;;2.45;2.25;;;;;;;11.22;85.06543;95009.12;;;;
2022/09/13 05:30:38;;;;;;;2.45;2.25;;;;;;;11.22;85.06543;95009.12;;;;
2022/09/13 05:31:38;;;;;;;2.45;2.25;;;;;;;11.22;85.06543;95009.12;;;;
2022/09/13 05:32:41;;;;;;;2.45;2.25;;;;;;;11.22;85.06543;95009.12;;;;
2022/09/13 05:33:41;;;;;;;2.45;2.25;;;;;;;11.22;85.06543;95009.12;;;;
2022/09/13 05:34:43;;;;;;;2.45;2.25;;;;;;;11.22;85.06543;95009.12;;;;
2022/09/13 05:35:43;;;;;;;3.7;2.5;;;;;;;11.5;84.88379;95034.53;;;;
2022/09/13 05:36:44;;;;;;;3.7;2.5;;;;;;;11.5;84.88379;95034.53;;;;
2022/09/13 05:37:45;;;;;;;3.7;2.5;;;;;;;11.5;84.88379;95034.53;;;;
2022/09/13 05:38:47;;;;;;;3.7;2.5;;;;;;;11.5;84.88379;95034.53;;;;
2022/09/13 05:39:48;;;;;;;3.7;2.5;;;;;;;11.5;84.88379;95034.53;;;;
2022/09/13 05:40:49;;;;;;;3.7;2.5;;;;;;;11.5;84.88379;95034.53;;;;
2022/09/13 05:41:53;;;;;;;3.7;2.5;;;;;;;11.5;84.88379;95034.53;;;;
2022/09/13 05:42:54;;;;;;;3.7;2.5;;;;;;;11.5;84.88379;95034.53;;;;
2022/09/13 05:43:54;;;;;;;3.7;2.5;;;;;;;11.5;84.88379;95034.53;;;;
2022/09/13 05:44:56;;;;;;;3.7;2.5;;;;;;;11.5;84.88379;95034.53;;;;
2022/09/13 05:45:56;;;;;;;3.7;2.5;;;;;;;11.5;84.88379;95034.53;;;;
2022/09/13 05:47:01;;;;;;;2.25;2.05;;;;;;;11.74;84.6709;95008.06;;;;
2022/09/13 05:48:01;;;;;;;2.25;2.05;;;;;;;11.74;84.6709;95008.06;;;;
2022/09/13 05:49:02;;;;;;;2.25;2.05;;;;;;;11.74;84.6709;95008.06;;;;
2022/09/13 05:50:03;;;;;;;2.25;2.05;;;;;;;11.74;84.6709;95008.06;;;;
2022/09/13 05:51:05;;;;;;;2.25;2.05;;;;;;;11.74;84.6709;95008.06;;;;
2022/09/13 05:52:07;;;;;;;2.25;2.05;;;;;;;11.74;84.6709;95008.06;;;;
2022/09/13 05:53:07;;;;;;;2.25;2.05;;;;;;;11.74;84.6709;95008.06;;;;
2022/09/13 05:54:08;;;;;;;2.25;2.05;;;;;;;11.74;84.6709;95008.06;;;;
2022/09/13 05:55:10;;;;;;;2.25;2.05;;;;;;;11.74;84.6709;95008.06;;;;
2022/09/13 05:56:11;;;;;;;2.25;2.05;;;;;;;11.74;84.6709;95008.06;;;;
2022/09/13 05:57:13;;;;;;;2.25;2.05;;;;;;;11.74;84.6709;95008.06;;;;
2022/09/13 05:58:13;;;;;;;2.25;2.05;;;;;;;11.74;84.6709;95008.06;;;;
2022/09/13 05:59:14;;;;;;;2.25;2.05;;;;;;;11.74;84.6709;95008.06;;;;
2022/09/13 06:00:14;;;;;;;2.25;2.05;;;;;;;11.74;84.6709;95008.06;;;;
2022/09/13 06:01:15;;;;;;;2.25;2.05;;;;;;;11.74;84.6709;95008.06;;;;
2022/09/13 06:02:18;;;;;;;2.25;2.05;;;;;;;11.74;84.6709;95008.06;;;;
2022/09/13 06:03:18;;;;;;;2.25;2.05;;;;;;;11.74;84.6709;95008.06;;;;
2022/09/13 06:04:19;;;;;;;2.25;2.05;;;;;;;11.74;84.6709;95008.06;;;;
2022/09/13 06:05:19;;;;;;;2.25;2.05;;;;;;;11.74;84.6709;95008.06;;;;
2022/09/13 06:06:20;;;;;;;2.25;2.05;;;;;;;11.74;84.6709;95008.06;;;;
2022/09/13 06:07:21;;;;;;;2.25;2.05;;;;;;;11.74;84.6709;95008.06;;;;
2022/09/13 06:08:22;;;;;;;2.5;2.15;;;;;;;12.27;84.47266;95025.31;;;;
2022/09/13 06:09:23;;;;;;;2.5;2.15;;;;;;;12.27;84.47266;95025.31;;;;
2022/09/13 06:10:24;;;;;;;2.5;2.15;;;;;;;12.27;84.47266;95025.31;;;;
2022/09/13 06:11:25;;;;;;;2.5;2.15;;;;;;;12.27;84.47266;95025.31;;;;